LZTT/TAT METAR and TAF weather

Enter ICAO airport designator
Station Type Date Time Source
LZTT METAR 2019/04/25 16:00 UTC NOAA

LZTT 251600Z 23010KT 9999 FEW050 19/08 Q1017 NOSIG


Station Type Date Time Source
LZTT Decoded METAR 2019/04/25 16:00 UTC NOAA

Poprad / Tatry, Slovakia (LZTT) 49-04N 020-15E 695M
Apr 25, 2019 - 12:00 PM EDT / 2019.04.25 1600 UTC
Wind: from the SW (230 degrees) at 12 MPH (10 KT):0
Visibility: greater than 7 mile(s):0
Sky conditions: mostly clear
Temperature: 66 F (19 C)
Dew Point: 46 F (8 C)
Relative Humidity: 48%
Pressure (altimeter): 30.03 in. Hg (1017 hPa)
ob: LZTT 251600Z 23010KT 9999 FEW050 19/08 Q1017 NOSIG
cycle: 16

Station Type Date Time Source
LZTT TAF 2019/04/25 12:57 UTC NOAA

TAF LZTT 251100Z 2512/2612 19008KT 9999 FEW020 SCT040
TEMPO 2512/2518 22012G25KT
BECMG 2515/2517 CAVOK

Example: see airport list